createdAt,value
2019-02-04T00:00:42.710Z,20.35
2019-02-04T00:03:14.320Z,30.70
2019-02-04T00:05:42.742Z,23.30
2019-02-04T00:08:11.162Z,19.77
2019-02-04T00:10:39.581Z,28.40
2019-02-04T00:13:07.993Z,23.05
2019-02-04T00:15:56.005Z,28.38
2019-02-04T00:18:24.426Z,21.73
2019-02-04T00:20:52.858Z,23.45
2019-02-04T00:23:21.779Z,20.77
2019-02-04T00:25:50.245Z,21.93
2019-02-04T00:28:18.664Z,28.15
2019-02-04T00:30:47.092Z,23.62
2019-02-04T00:33:15.514Z,23.38
2019-02-04T00:35:43.945Z,24.87
2019-02-04T00:38:12.640Z,26.12
2019-02-04T00:40:41.089Z,24.85
2019-02-04T00:43:09.502Z,27.90
2019-02-04T00:45:38.232Z,22.65
2019-02-04T00:48:06.921Z,23.50
2019-02-04T00:50:35.368Z,25.65
2019-02-04T00:53:04.178Z,24.55
2019-02-04T00:55:32.602Z,24.02
2019-02-04T00:58:01.025Z,29.10
2019-02-04T01:00:30.789Z,27.62
2019-02-04T01:02:59.281Z,22.30
2019-02-04T01:05:27.769Z,19.02
2019-02-04T01:07:56.595Z,26.27
2019-02-04T01:10:29.750Z,29.75
2019-02-04T01:12:59.013Z,24.02
2019-02-04T01:15:27.998Z,23.42
2019-02-04T01:17:56.691Z,22.82
2019-02-04T01:20:30.190Z,26.45
2019-02-04T01:22:59.393Z,22.10
2019-02-04T01:25:28.617Z,23.18
2019-02-04T01:27:57.119Z,25.32
2019-02-04T01:30:26.045Z,23.75
2019-02-04T01:32:54.572Z,29.15
2019-02-04T01:35:23.065Z,22.75
2019-02-04T01:37:51.809Z,20.75
2019-02-04T01:40:25.209Z,20.27
2019-02-04T01:42:54.377Z,20.90
2019-02-04T01:45:23.286Z,20.40
2019-02-04T01:47:51.761Z,22.30
2019-02-04T01:50:22.002Z,23.38
2019-02-04T01:52:50.806Z,22.20
2019-02-04T01:55:19.548Z,17.35
2019-02-04T01:57:50.815Z,18.02
2019-02-04T02:00:27.338Z,24.20
2019-02-04T02:02:56.150Z,21.17
2019-02-04T02:05:24.789Z,24.80
2019-02-04T02:07:53.492Z,34.70
2019-02-04T02:10:23.744Z,21.40
2019-02-04T02:12:52.309Z,17.07
2019-02-04T02:15:20.870Z,21.50
2019-02-04T02:17:49.842Z,20.88
2019-02-04T02:20:20.597Z,18.92
2019-02-04T02:22:49.258Z,20.00
2019-02-04T02:25:18.071Z,17.25
2019-02-04T02:27:46.748Z,23.80
2019-02-04T02:30:43.282Z,21.27
2019-02-04T02:33:11.709Z,18.32
2019-02-04T02:35:40.206Z,19.05
2019-02-04T02:38:08.625Z,20.32
2019-02-04T02:40:37.038Z,22.58
2019-02-04T02:43:05.750Z,21.12
2019-02-04T02:45:34.210Z,20.17
2019-02-04T02:48:02.856Z,23.27
2019-02-04T02:50:31.335Z,16.48
2019-02-04T02:52:59.763Z,22.85
2019-02-04T02:55:28.177Z,25.55
2019-02-04T02:57:57.288Z,23.80
2019-02-04T03:00:27.443Z,19.12
2019-02-04T03:02:55.942Z,21.75
2019-02-04T03:05:25.424Z,31.17
2019-02-04T03:07:54.194Z,21.87
2019-02-04T03:10:25.430Z,26.97
2019-02-04T03:12:54.228Z,20.92
2019-02-04T03:15:22.721Z,20.23
2019-02-04T03:17:52.579Z,23.90
2019-02-04T03:20:21.468Z,23.70
2019-02-04T03:22:50.147Z,21.52
2019-02-04T03:25:18.626Z,27.00
2019-02-04T03:27:47.036Z,21.87
2019-02-04T03:30:23.641Z,24.02
2019-02-04T03:32:52.046Z,22.85
2019-02-04T03:35:20.762Z,19.55
2019-02-04T03:37:52.097Z,22.70
2019-02-04T03:40:22.451Z,23.92
2019-02-04T03:42:50.864Z,20.30
2019-02-04T03:45:19.634Z,20.10
2019-02-04T03:47:48.054Z,19.35
2019-02-04T03:50:16.854Z,18.40
2019-02-04T03:52:45.333Z,16.93
2019-02-04T03:55:15.845Z,22.82
2019-02-04T03:57:44.331Z,21.45
2019-02-04T04:00:21.528Z,24.00
2019-02-04T04:02:50.031Z,24.50
2019-02-04T04:05:18.675Z,23.60
2019-02-04T04:07:47.130Z,17.98
2019-02-04T04:10:15.867Z,23.77
2019-02-04T04:12:44.332Z,24.20
2019-02-04T04:15:14.987Z,20.35
2019-02-04T04:17:43.589Z,25.57
2019-02-04T04:20:19.973Z,22.05
2019-02-04T04:22:48.471Z,21.20
2019-02-04T04:25:18.031Z,23.07
2019-02-04T04:27:47.756Z,19.75
2019-02-04T04:30:24.200Z,16.73
2019-02-04T04:32:52.681Z,18.67
2019-02-04T04:35:21.111Z,18.07
2019-02-04T04:37:49.623Z,19.95
2019-02-04T04:40:18.269Z,23.18
2019-02-04T04:42:47.228Z,18.35
2019-02-04T04:45:17.819Z,18.12
2019-02-04T04:47:46.220Z,22.20
2019-02-04T04:50:34.356Z,23.83
2019-02-04T04:53:02.812Z,15.85
2019-02-04T04:55:31.233Z,16.60
2019-02-04T04:57:59.658Z,25.77
2019-02-04T05:00:30.606Z,16.85
2019-02-04T05:02:59.533Z,19.45
2019-02-04T05:05:28.385Z,19.23
2019-02-04T05:07:57.185Z,20.45
2019-02-04T05:10:25.638Z,23.30
2019-02-04T05:12:54.272Z,24.18
2019-02-04T05:15:27.493Z,27.98
2019-02-04T05:17:55.981Z,24.63
2019-02-04T05:20:24.629Z,33.92
2019-02-04T05:22:53.369Z,26.20
2019-02-04T05:25:22.070Z,25.40
2019-02-04T05:27:50.746Z,26.15
2019-02-04T05:30:20.993Z,19.55
2019-02-04T05:32:49.488Z,23.15
2019-02-04T05:35:17.904Z,19.80
2019-02-04T05:37:46.573Z,27.27
2019-02-04T05:40:16.835Z,18.65
2019-02-04T05:42:46.116Z,31.20
2019-02-04T05:45:19.212Z,39.90
2019-02-04T05:47:47.628Z,22.10
2019-02-04T05:50:17.999Z,37.73
2019-02-04T05:52:46.789Z,23.85
2019-02-04T05:55:16.484Z,23.38
2019-02-04T05:57:44.911Z,33.28
2019-02-04T06:00:24.037Z,21.27
2019-02-04T06:02:52.778Z,21.77
2019-02-04T06:05:21.635Z,26.70
2019-02-04T06:07:50.106Z,25.48
2019-02-04T06:10:18.797Z,20.70
2019-02-04T06:12:47.431Z,27.82
2019-02-04T06:15:17.988Z,22.98
2019-02-04T06:17:46.481Z,21.42
2019-02-04T06:20:20.239Z,21.40
2019-02-04T06:22:48.950Z,23.42
2019-02-04T06:25:17.623Z,18.62
2019-02-04T06:27:46.430Z,24.82
2019-02-04T06:30:16.843Z,22.85
2019-02-04T06:32:45.512Z,22.90
2019-02-04T06:35:16.033Z,23.02
2019-02-04T06:37:46.735Z,23.92
2019-02-04T06:40:18.032Z,25.37
2019-02-04T06:42:46.498Z,24.35
2019-02-04T06:45:16.853Z,26.62
2019-02-04T06:47:45.426Z,32.65
2019-02-04T06:50:22.614Z,25.92
2019-02-04T06:52:51.372Z,29.30
2019-02-04T06:55:28.486Z,22.22
2019-02-04T06:57:56.977Z,20.10
2019-02-04T07:00:25.402Z,23.20
2019-02-04T07:02:54.290Z,27.52
2019-02-04T07:05:22.912Z,38.50
2019-02-04T07:07:51.405Z,33.88
2019-02-04T07:10:25.306Z,28.47
2019-02-04T07:12:53.716Z,38.67
2019-02-04T07:15:22.129Z,27.22
2019-02-04T07:17:50.798Z,29.05
2019-02-04T07:20:24.222Z,19.95
2019-02-04T07:22:52.700Z,27.40
2019-02-04T07:25:22.098Z,17.12
2019-02-04T07:27:50.517Z,25.12
2019-02-04T07:30:21.805Z,15.72
2019-02-04T07:32:50.367Z,14.23
2019-02-04T07:35:19.622Z,17.32
2019-02-04T07:37:48.311Z,16.02
2019-02-04T07:40:21.937Z,22.13
2019-02-04T07:42:51.994Z,21.25
2019-02-04T07:45:21.036Z,18.55
2019-02-04T07:47:51.937Z,18.17
2019-02-04T07:50:21.084Z,15.53
2019-02-04T07:52:51.412Z,19.77
2019-02-04T07:55:19.884Z,18.75
2019-02-04T08:01:17.377Z,14.58
2019-02-04T08:03:45.870Z,19.12
2019-02-04T08:06:14.294Z,19.62
2019-02-04T08:08:43.135Z,18.45
2019-02-04T08:11:11.835Z,17.75
2019-02-04T08:13:40.325Z,18.67
2019-02-04T08:16:08.749Z,19.12
2019-02-04T08:18:37.198Z,19.32
2019-02-04T08:21:05.790Z,17.95
2019-02-04T08:23:34.215Z,19.60
2019-02-04T08:26:02.651Z,23.55
2019-02-04T08:28:31.310Z,17.75
2019-02-04T08:31:01.088Z,26.15
2019-02-04T08:33:29.507Z,23.67
2019-02-04T08:35:58.305Z,22.37
2019-02-04T08:38:26.996Z,25.43
2019-02-04T08:40:55.478Z,23.60
2019-02-04T08:43:24.207Z,17.82
2019-02-04T08:49:21.503Z,19.95
2019-02-04T08:51:49.952Z,17.02
2019-02-04T08:54:18.632Z,19.15
2019-02-04T08:56:47.346Z,20.37
2019-02-04T08:59:15.770Z,18.52
2019-02-04T09:01:44.217Z,16.62
2019-02-04T09:04:12.783Z,18.12
2019-02-04T09:06:41.210Z,17.00
2019-02-04T09:09:10.443Z,17.98
2019-02-04T09:11:39.307Z,22.73
2019-02-04T09:14:07.787Z,18.82
2019-02-04T09:16:36.278Z,18.10
2019-02-04T09:19:05.416Z,14.53
2019-02-04T09:21:33.947Z,15.65
2019-02-04T09:24:02.706Z,13.48
2019-02-04T09:26:31.138Z,17.82
2019-02-04T09:28:59.851Z,17.95
2019-02-04T09:31:28.427Z,17.82
2019-02-04T09:33:56.855Z,14.73
2019-02-04T09:36:25.292Z,14.53
2019-02-04T09:38:53.709Z,15.95
2019-02-04T09:41:22.154Z,14.75
2019-02-04T09:43:50.574Z,12.07
2019-02-04T09:46:19.011Z,11.75
2019-02-04T09:48:47.438Z,10.28
2019-02-04T09:51:16.056Z,11.20
2019-02-04T09:53:44.529Z,9.48
2019-02-04T09:56:12.958Z,9.78
2019-02-04T09:58:41.369Z,9.48
2019-02-04T10:01:10.142Z,9.75
2019-02-04T10:03:38.571Z,14.28
2019-02-04T10:06:07.066Z,8.60
2019-02-04T10:08:35.723Z,8.95
2019-02-04T10:11:04.226Z,19.17
2019-02-04T10:13:32.643Z,8.40
2019-02-04T10:16:01.499Z,10.60
2019-02-04T10:18:30.175Z,9.75
2019-02-04T10:20:58.666Z,13.93
2019-02-04T10:23:27.420Z,10.45
2019-02-04T10:25:56.152Z,10.58
2019-02-04T10:28:24.805Z,9.15
2019-02-04T10:30:53.507Z,13.40
2019-02-04T10:33:22.299Z,9.45
2019-02-04T10:35:50.721Z,9.98
2019-02-04T10:38:19.496Z,10.35
2019-02-04T10:40:47.919Z,11.60
2019-02-04T10:43:16.494Z,11.83
2019-02-04T10:45:44.973Z,9.98
2019-02-04T10:48:13.458Z,16.12
2019-02-04T10:50:46.287Z,14.07
2019-02-04T10:53:12.729Z,14.23
2019-02-04T10:55:41.399Z,8.48
2019-02-04T10:58:11.919Z,11.80
2019-02-04T11:00:40.715Z,12.18
2019-02-04T11:03:09.394Z,10.58
2019-02-04T11:05:40.154Z,9.45
2019-02-04T11:08:10.750Z,12.33
2019-02-04T11:10:39.337Z,11.25
2019-02-04T11:13:11.084Z,11.20
2019-02-04T11:15:40.264Z,9.95
2019-02-04T11:18:09.490Z,9.70
2019-02-04T11:20:38.174Z,11.60
2019-02-04T11:23:08.246Z,12.53
2019-02-04T11:25:37.054Z,10.43
2019-02-04T11:28:06.893Z,13.20
2019-02-04T11:30:38.547Z,12.73
2019-02-04T11:33:07.199Z,8.15
2019-02-04T11:35:35.602Z,11.20
2019-02-04T11:38:04.719Z,9.80
2019-02-04T11:40:40.553Z,7.83
2019-02-04T11:43:09.823Z,8.68
2019-02-04T11:45:38.374Z,8.78
2019-02-04T11:48:11.970Z,11.03
2019-02-04T11:50:40.568Z,8.88
2019-02-04T11:53:09.078Z,9.23
2019-02-04T11:55:37.630Z,7.83
2019-02-04T11:58:07.873Z,8.50
2019-02-04T12:00:37.733Z,6.80
2019-02-04T12:03:09.122Z,9.57
2019-02-04T12:05:37.766Z,6.77
2019-02-04T12:08:06.498Z,6.10
2019-02-04T12:10:43.529Z,10.10
2019-02-04T12:13:12.270Z,8.87
2019-02-04T12:15:40.939Z,5.80
2019-02-04T12:18:09.394Z,7.80
2019-02-04T12:20:39.952Z,7.47
2019-02-04T12:23:08.007Z,8.30
2019-02-04T12:25:36.808Z,7.10
2019-02-04T12:28:05.366Z,8.97
2019-02-04T12:30:36.941Z,7.90
2019-02-04T12:33:07.086Z,8.47
2019-02-04T12:35:35.586Z,6.70
2019-02-04T12:38:04.351Z,9.83
2019-02-04T12:40:33.230Z,9.10
2019-02-04T12:43:01.709Z,6.47
2019-02-04T12:45:33.138Z,7.77
2019-02-04T12:48:01.619Z,7.30
2019-02-04T12:50:30.287Z,6.13
2019-02-04T12:52:58.944Z,7.93
2019-02-04T12:55:29.771Z,9.73
2019-02-04T12:57:58.453Z,7.73
2019-02-04T13:00:31.267Z,13.17
2019-02-04T13:02:59.966Z,7.50
2019-02-04T13:05:34.313Z,10.00
2019-02-04T13:08:03.173Z,8.73
2019-02-04T13:10:31.761Z,12.00
2019-02-04T13:13:00.178Z,14.50
2019-02-04T13:15:28.750Z,9.70
2019-02-04T13:17:57.175Z,11.53
2019-02-04T13:20:25.874Z,12.83
2019-02-04T13:22:54.335Z,12.10
2019-02-04T13:25:25.470Z,10.53
2019-02-04T13:27:54.251Z,12.37
2019-02-04T13:30:24.954Z,11.20
2019-02-04T13:32:53.515Z,11.63
2019-02-04T13:35:22.183Z,12.77
2019-02-04T13:37:51.358Z,10.13
2019-02-04T13:40:25.843Z,9.57
2019-02-04T13:42:54.679Z,10.57
2019-02-04T13:45:23.292Z,11.70
2019-02-04T13:47:53.953Z,9.33
2019-02-04T13:50:23.508Z,11.47
2019-02-04T13:52:52.835Z,19.65
2019-02-04T13:55:26.599Z,13.77
2019-02-04T13:57:55.154Z,12.80
2019-02-04T14:00:27.174Z,12.70
2019-02-04T14:02:59.402Z,11.53
2019-02-04T14:05:31.195Z,10.37
2019-02-04T14:07:58.817Z,11.23
2019-02-04T14:10:30.254Z,15.33
2019-02-04T14:12:58.823Z,10.80
2019-02-04T14:15:28.534Z,10.97
2019-02-04T14:17:57.400Z,14.78
2019-02-04T14:20:26.930Z,12.53
2019-02-04T14:22:55.525Z,13.20
2019-02-04T14:25:24.271Z,13.62
2019-02-04T14:27:52.837Z,12.65
2019-02-04T14:30:24.579Z,14.65
2019-02-04T14:32:53.509Z,12.80
2019-02-04T14:35:21.982Z,15.70
2019-02-04T14:37:50.951Z,11.97
2019-02-04T14:40:19.422Z,16.60
2019-02-04T14:42:59.597Z,17.90
2019-02-04T14:45:32.792Z,13.53
2019-02-04T14:48:23.574Z,12.82
2019-02-04T14:51:03.630Z,15.53
2019-02-04T14:53:54.539Z,16.50
2019-02-04T14:56:31.879Z,14.73
2019-02-04T14:59:08.562Z,14.30
2019-02-04T15:01:42.706Z,13.48
2019-02-04T15:04:47.274Z,12.25
2019-02-04T15:07:30.815Z,12.63
2019-02-04T15:10:22.223Z,14.30
2019-02-04T15:13:11.558Z,13.30
2019-02-04T15:15:51.713Z,11.97
2019-02-04T15:18:37.838Z,12.78
2019-02-04T15:21:21.336Z,10.93
2019-02-04T15:23:55.486Z,12.82
2019-02-04T15:26:42.038Z,13.35
2019-02-04T15:29:16.183Z,13.35
2019-02-04T15:31:53.365Z,12.78
2019-02-04T15:34:30.828Z,14.13
2019-02-04T15:37:13.893Z,14.68
2019-02-04T15:39:53.793Z,15.55
2019-02-04T15:42:45.878Z,13.70
2019-02-04T15:45:28.870Z,13.15
2019-02-04T15:47:59.142Z,19.25
2019-02-04T15:50:36.787Z,15.95
2019-02-04T15:53:05.450Z,14.83
2019-02-04T15:55:33.874Z,13.35
2019-02-04T15:58:02.317Z,18.80
2019-02-04T16:00:30.737Z,15.80
2019-02-04T16:02:59.247Z,17.20
2019-02-04T16:05:27.730Z,14.58
2019-02-04T16:07:56.163Z,18.95
2019-02-04T16:10:24.582Z,20.17
2019-02-04T16:12:53.002Z,21.82
2019-02-04T16:15:21.501Z,25.23
2019-02-04T16:17:49.973Z,21.17
2019-02-04T16:20:23.924Z,21.15
2019-02-04T16:22:58.501Z,18.75
2019-02-04T16:25:22.619Z,19.30
2019-02-04T16:27:51.129Z,21.35
2019-02-04T16:30:22.678Z,19.23
2019-02-04T16:32:52.947Z,21.37
2019-02-04T16:35:21.355Z,25.95
2019-02-04T16:37:50.277Z,21.77
2019-02-04T16:40:20.795Z,23.65
2019-02-04T16:42:49.547Z,24.32
2019-02-04T16:45:20.640Z,23.98
2019-02-04T16:47:49.774Z,24.43
2019-02-04T16:50:24.044Z,23.50
2019-02-04T16:52:52.466Z,26.60
2019-02-04T16:55:21.022Z,21.37
2019-02-04T16:57:49.482Z,25.35
2019-02-04T17:00:21.001Z,28.77
2019-02-04T17:02:49.603Z,26.00
2019-02-04T17:05:18.878Z,25.00
2019-02-04T17:07:47.303Z,27.90
2019-02-04T17:10:20.704Z,23.87
2019-02-04T17:12:49.365Z,30.10
2019-02-04T17:15:17.876Z,23.05
2019-02-04T17:17:46.670Z,27.07
2019-02-04T17:20:18.386Z,21.37
2019-02-04T17:22:46.809Z,23.02
2019-02-04T17:25:15.310Z,25.52
2019-02-04T17:27:43.730Z,19.65
2019-02-04T17:30:20.680Z,18.05
2019-02-04T17:32:49.103Z,24.80
2019-02-04T17:35:17.591Z,24.65
2019-02-04T17:37:46.026Z,31.90
2019-02-04T17:40:22.622Z,31.85
2019-02-04T17:42:52.697Z,20.77
2019-02-04T17:45:22.859Z,19.10
2019-02-04T17:47:53.235Z,19.52
2019-02-04T17:50:22.618Z,22.75
2019-02-04T17:52:51.600Z,19.65
2019-02-04T17:55:22.660Z,20.70
2019-02-04T17:57:51.542Z,19.65
2019-02-04T18:00:24.350Z,20.60
2019-02-04T18:02:52.792Z,24.65
2019-02-04T18:05:21.366Z,32.93
2019-02-04T18:07:50.245Z,29.18
2019-02-04T18:10:19.451Z,27.40
2019-02-04T18:12:48.267Z,22.75
2019-02-04T18:15:21.558Z,26.87
2019-02-04T18:17:50.074Z,21.97
2019-02-04T18:20:18.747Z,24.98
2019-02-04T18:22:47.250Z,25.05
2019-02-04T18:25:19.973Z,27.60
2019-02-04T18:27:48.750Z,27.37
2019-02-04T18:30:21.873Z,31.75
2019-02-04T18:32:50.710Z,26.00
2019-02-04T18:35:19.291Z,25.25
2019-02-04T18:37:48.246Z,25.95
2019-02-04T18:40:19.366Z,22.00
2019-02-04T18:42:48.633Z,22.93
2019-02-04T18:45:21.437Z,27.22
2019-02-04T18:47:50.194Z,32.08
2019-02-04T18:50:20.430Z,24.98
2019-02-04T18:52:49.324Z,28.65
2019-02-04T18:55:20.178Z,30.60
2019-02-04T18:57:50.289Z,27.07
2019-02-04T19:00:21.887Z,26.93
2019-02-04T19:02:50.484Z,31.65
2019-02-04T19:05:19.710Z,28.40
2019-02-04T19:07:48.228Z,31.57
2019-02-04T19:10:18.895Z,29.87
2019-02-04T19:12:47.396Z,23.27
2019-02-04T19:15:17.755Z,39.95
2019-02-04T19:17:46.632Z,29.25
2019-02-04T19:20:20.546Z,37.75
2019-02-04T19:22:49.046Z,38.05
2019-02-04T19:25:19.216Z,37.98
2019-02-04T19:27:47.885Z,33.15
2019-02-04T19:30:50.765Z,43.80
2019-02-04T19:33:19.207Z,33.83
2019-02-04T19:35:47.629Z,35.17
2019-02-04T19:38:16.071Z,38.30
2019-02-04T19:40:44.518Z,43.17
2019-02-04T19:43:13.463Z,38.63
2019-02-04T19:45:42.014Z,42.53
2019-02-04T19:48:10.617Z,33.33
2019-02-04T19:50:39.180Z,42.62
2019-02-04T19:53:07.754Z,43.15
2019-02-04T19:55:36.177Z,41.90
2019-02-04T19:58:05.963Z,38.73
2019-02-04T20:00:34.477Z,33.15
2019-02-04T20:03:03.011Z,36.88
2019-02-04T20:05:32.470Z,32.48
2019-02-04T20:08:00.976Z,32.70
2019-02-04T20:10:32.188Z,38.53
2019-02-04T20:13:00.903Z,33.53
2019-02-04T20:15:31.085Z,28.62
2019-02-04T20:17:59.687Z,28.45
2019-02-04T20:20:28.418Z,28.75
2019-02-04T20:22:57.439Z,31.93
2019-02-04T20:25:28.466Z,28.40
2019-02-04T20:27:56.904Z,29.00
2019-02-04T20:30:28.243Z,23.60
2019-02-04T20:32:56.670Z,28.38
2019-02-04T20:35:25.184Z,23.10
2019-02-04T20:37:53.639Z,21.73
2019-02-04T20:40:24.422Z,29.87
2019-02-04T20:42:53.042Z,23.75
2019-02-04T20:45:22.089Z,28.95
2019-02-04T20:47:51.575Z,24.77
2019-02-04T20:50:22.875Z,22.30
2019-02-04T20:52:51.412Z,20.80
2019-02-04T20:55:19.845Z,21.60
2019-02-04T20:57:48.271Z,24.18
2019-02-04T21:00:19.593Z,27.98
2019-02-04T21:02:48.209Z,25.40
2019-02-04T21:05:16.981Z,26.60
2019-02-04T21:07:45.532Z,23.07
2019-02-04T21:10:16.611Z,22.27
2019-02-04T21:12:45.030Z,24.25
2019-02-04T21:15:16.556Z,22.32
2019-02-04T21:17:44.978Z,21.68
2019-02-04T21:20:16.263Z,23.67
2019-02-04T21:22:44.939Z,22.45
2019-02-04T21:25:13.976Z,29.00
2019-02-04T21:27:42.553Z,21.82
2019-02-04T21:30:25.919Z,23.57
2019-02-04T21:32:54.333Z,30.55
2019-02-04T21:35:22.910Z,30.10
2019-02-04T21:37:51.324Z,21.42
2019-02-04T21:40:20.930Z,23.30
2019-02-04T21:42:49.722Z,23.47
2019-02-04T21:45:23.318Z,26.73
2019-02-04T21:47:52.031Z,21.57
2019-02-04T21:50:28.430Z,19.25
2019-02-04T21:52:56.988Z,21.50
2019-02-04T21:55:25.693Z,24.07
2019-02-04T21:57:54.177Z,24.37
2019-02-04T22:00:28.253Z,22.05
2019-02-04T22:02:56.671Z,21.07
2019-02-04T22:05:27.233Z,24.55
2019-02-04T22:07:55.938Z,24.15
2019-02-04T22:10:26.849Z,26.20
2019-02-04T22:12:55.556Z,22.98
2019-02-04T22:15:24.107Z,20.65
2019-02-04T22:17:52.606Z,21.25
2019-02-04T22:20:21.972Z,18.73
2019-02-04T22:22:50.550Z,19.67
2019-02-04T22:25:21.482Z,16.12
2019-02-04T22:27:50.121Z,16.65
2019-02-04T22:30:20.517Z,21.73
2019-02-04T22:32:49.213Z,21.12
2019-02-04T22:35:17.693Z,19.50
2019-02-04T22:37:46.202Z,23.05
2019-02-04T22:40:24.837Z,22.00
2019-02-04T22:42:53.530Z,16.07
2019-02-04T22:45:22.072Z,18.17
2019-02-04T22:47:50.493Z,20.55
2019-02-04T22:50:27.307Z,27.73
2019-02-04T22:52:55.879Z,21.52
2019-02-04T22:55:31.782Z,18.35
2019-02-04T22:57:54.838Z,19.50
2019-02-04T23:00:49.236Z,22.20
2019-02-04T23:03:20.421Z,19.00
2019-02-04T23:05:49.002Z,18.90
2019-02-04T23:08:37.030Z,14.15
2019-02-04T23:11:05.582Z,16.30
2019-02-04T23:13:34.387Z,12.93
2019-02-04T23:16:02.871Z,16.10
2019-02-04T23:18:31.297Z,13.98
2019-02-04T23:20:59.717Z,12.43
2019-02-04T23:23:28.479Z,17.77
2019-02-04T23:25:57.156Z,15.63
2019-02-04T23:28:26.050Z,14.90
2019-02-04T23:30:54.470Z,13.22
2019-02-04T23:33:33.710Z,16.17
2019-02-04T23:35:53.034Z,12.98
2019-02-04T23:38:21.685Z,15.90
2019-02-04T23:40:50.368Z,15.00
2019-02-04T23:43:19.045Z,14.43
2019-02-04T23:45:47.748Z,14.47
2019-02-04T23:48:16.173Z,19.07
2019-02-04T23:50:44.845Z,18.77
2019-02-04T23:53:13.270Z,18.62
2019-02-04T23:55:41.683Z,12.47
2019-02-04T23:58:10.101Z,14.98
